Time;durP1;ratioP1;P1;durP2;ratioP2;P2;SDS_P1;SDS_P2;PMS_P1;PMS_P2;Temp;Humidity;BMP_temperature;BMP_pressure;BME280_temperature;BME280_humidity;BME280_pressure;Samples;Min_cycle;Max_cycle;Signal;HPM_P1;HPM_P2
2022/09/20 00:00:19;;;;;;;4.63;3.25;;;15.00;99.50;;;;;;4957827;29;20071;-58
2022/09/20 00:02:46;;;;;;;5.85;3.08;;;15.00;99.70;;;;;;4957657;28;20063;-55
2022/09/20 00:05:12;;;;;;;5.78;3.10;;;14.90;99.70;;;;;;4958338;28;20121;-58
2022/09/20 00:07:39;;;;;;;3.63;3.10;;;14.90;99.70;;;;;;4958275;29;20047;-58
2022/09/20 00:10:06;;;;;;;5.00;3.20;;;14.90;99.80;;;;;;4958495;29;20123;-57
2022/09/20 00:12:33;;;;;;;5.32;3.40;;;14.80;99.80;;;;;;4956926;29;20083;-59
2022/09/20 00:14:59;;;;;;;4.38;3.22;;;14.80;99.70;;;;;;4957710;28;20063;-58
2022/09/20 00:17:26;;;;;;;8.15;3.10;;;14.80;99.80;;;;;;4958051;28;20043;-58
2022/09/20 00:19:53;;;;;;;4.63;3.50;;;14.70;99.80;;;;;;4957913;28;20046;-57
2022/09/20 00:22:19;;;;;;;4.28;3.28;;;14.70;99.90;;;;;;4958146;28;20159;-61
2022/09/20 00:24:46;;;;;;;4.32;3.17;;;14.60;99.90;;;;;;4958043;28;20542;-55
2022/09/20 00:27:14;;;;;;;5.00;3.80;;;14.60;99.90;;;;;;4957951;28;20451;-59
2022/09/20 00:29:41;;;;;;;7.75;3.55;;;14.50;99.90;;;;;;4957937;29;20043;-59
2022/09/20 00:32:08;;;;;;;4.32;3.05;;;14.50;99.90;;;;;;4957280;28;20566;-58
2022/09/20 00:37:20;;;;;;;5.40;4.25;;;14.40;99.90;;;;;;4957570;28;20043;-60
2022/09/20 00:39:47;;;;;;;5.32;3.63;;;14.30;99.90;;;;;;4957786;28;20043;-58
2022/09/20 00:42:13;;;;;;;5.82;3.88;;;14.30;99.90;;;;;;4958122;28;20078;-58
2022/09/20 00:44:41;;;;;;;6.85;3.92;;;14.30;99.90;;;;;;4957411;28;20139;-58
2022/09/20 00:47:08;;;;;;;5.78;3.80;;;14.30;99.90;;;;;;4956662;28;20095;-60
2022/09/20 00:49:34;;;;;;;5.65;4.03;;;14.20;99.90;;;;;;4957331;28;20043;-62
2022/09/20 00:52:01;;;;;;;5.93;3.65;;;14.20;99.90;;;;;;4957910;28;20039;-60
2022/09/20 00:54:28;;;;;;;4.93;3.83;;;14.20;99.90;;;;;;4957460;28;20608;-57
2022/09/20 00:56:54;;;;;;;6.20;3.55;;;14.10;99.90;;;;;;4956657;28;20102;-60
2022/09/20 00:59:21;;;;;;;4.50;3.88;;;14.10;99.90;;;;;;4956823;28;20058;-58
2022/09/20 01:01:48;;;;;;;6.15;3.90;;;14.10;99.90;;;;;;4955762;28;20122;-58
2022/09/20 01:04:14;;;;;;;6.85;3.95;;;14.00;99.90;;;;;;4957068;28;20119;-57
2022/09/20 01:06:41;;;;;;;4.60;3.90;;;14.00;99.90;;;;;;4957056;29;20046;-58
2022/09/20 01:09:08;;;;;;;5.15;3.88;;;14.00;99.90;;;;;;4956859;29;20043;-59
2022/09/20 01:11:35;;;;;;;5.25;4.25;;;14.00;99.90;;;;;;4957137;28;20045;-57
2022/09/20 01:14:02;;;;;;;6.72;4.47;;;13.90;99.90;;;;;;4957026;28;20468;-59
2022/09/20 01:16:29;;;;;;;7.38;3.90;;;13.90;99.90;;;;;;4957085;28;20066;-53
2022/09/20 01:18:55;;;;;;;5.78;4.40;;;13.90;99.90;;;;;;4955873;28;20074;-58
2022/09/20 01:21:22;;;;;;;5.35;3.75;;;13.90;99.90;;;;;;4956710;29;20130;-58
2022/09/20 01:23:49;;;;;;;6.32;3.67;;;13.90;99.90;;;;;;4955197;28;20118;-58
2022/09/20 01:26:16;;;;;;;7.82;3.78;;;13.90;99.90;;;;;;4953174;29;20038;-56
2022/09/20 01:28:42;;;;;;;5.28;3.17;;;13.80;99.90;;;;;;4956958;28;20039;-57
2022/09/20 01:31:09;;;;;;;3.92;3.50;;;13.80;99.90;;;;;;4956967;28;20462;-57
2022/09/20 01:33:36;;;;;;;4.65;3.45;;;13.80;99.90;;;;;;4955887;29;20043;-60
2022/09/20 01:36:02;;;;;;;4.43;3.40;;;13.70;99.90;;;;;;4955430;28;20118;-61
2022/09/20 01:38:29;;;;;;;6.90;3.40;;;13.70;99.90;;;;;;4956368;28;20051;-58
2022/09/20 01:40:56;;;;;;;3.75;3.30;;;13.70;99.90;;;;;;4955383;28;20122;-59
2022/09/20 01:43:22;;;;;;;3.97;2.97;;;13.60;99.90;;;;;;4954074;28;20040;-56
2022/09/20 01:45:49;;;;;;;5.40;3.35;;;13.60;99.90;;;;;;4955657;28;20059;-57
2022/09/20 01:48:16;;;;;;;6.60;3.22;;;13.60;99.90;;;;;;4955728;28;20110;-56
2022/09/20 01:50:43;;;;;;;4.88;3.47;;;13.60;99.90;;;;;;4956106;28;20066;-58
2022/09/20 01:53:09;;;;;;;4.13;3.45;;;13.50;99.90;;;;;;4954826;28;20431;-60
2022/09/20 01:55:36;;;;;;;4.57;3.10;;;13.50;99.90;;;;;;4956266;29;20070;-58
2022/09/20 01:58:03;;;;;;;6.75;3.15;;;13.50;99.90;;;;;;4956140;28;20089;-59
2022/09/20 02:00:33;;;;;;;5.28;3.50;;;13.50;99.90;;;;;;4956173;28;20617;-57
2022/09/20 02:03:00;;;;;;;5.10;3.80;;;13.50;99.90;;;;;;4952850;28;20502;-61
2022/09/20 02:05:27;;;;;;;4.47;3.35;;;13.40;99.90;;;;;;4956240;28;20511;-55
2022/09/20 02:07:54;;;;;;;4.68;3.50;;;13.40;99.90;;;;;;4955551;28;20067;-56
2022/09/20 02:10:20;;;;;;;5.15;3.72;;;13.30;99.90;;;;;;4954202;28;20142;-57
2022/09/20 02:12:47;;;;;;;6.45;3.53;;;13.30;99.90;;;;;;4955781;28;20053;-59
2022/09/20 02:15:14;;;;;;;6.00;3.75;;;13.30;99.90;;;;;;4954994;28;20071;-58
2022/09/20 02:17:40;;;;;;;6.75;3.45;;;13.30;99.90;;;;;;4953455;28;20405;-57
2022/09/20 02:20:08;;;;;;;6.43;3.78;;;13.30;99.90;;;;;;4955301;28;20050;-59
2022/09/20 02:22:34;;;;;;;6.65;3.70;;;13.30;99.90;;;;;;4955367;28;20039;-56
2022/09/20 02:25:01;;;;;;;6.07;3.70;;;13.40;99.90;;;;;;4954775;28;20036;-58
2022/09/20 02:27:28;;;;;;;5.70;3.90;;;13.40;99.90;;;;;;4954900;28;20463;-60
2022/09/20 02:29:54;;;;;;;6.78;3.72;;;13.40;99.90;;;;;;4956010;28;20078;-58
2022/09/20 02:32:23;;;;;;;6.72;4.25;;;13.40;99.90;;;;;;4955767;28;20035;-58
2022/09/20 02:34:50;;;;;;;5.57;3.70;;;13.40;99.90;;;;;;4953605;29;20525;-58
2022/09/20 02:37:17;;;;;;;9.88;4.07;;;13.40;99.90;;;;;;4953742;28;20207;-58
2022/09/20 02:39:44;;;;;;;6.90;4.70;;;13.40;99.90;;;;;;4955800;28;20043;-56
2022/09/20 02:42:10;;;;;;;6.45;4.20;;;13.50;99.90;;;;;;4953725;28;20126;-59
2022/09/20 02:44:37;;;;;;;6.07;4.22;;;13.50;99.90;;;;;;4954138;28;20504;-59
2022/09/20 02:47:04;;;;;;;7.63;4.13;;;13.50;99.90;;;;;;4954412;28;20474;-57
2022/09/20 02:49:30;;;;;;;6.55;4.63;;;13.60;99.90;;;;;;4955364;29;20386;-60
2022/09/20 02:51:57;;;;;;;6.35;4.70;;;13.60;99.90;;;;;;4954310;28;20118;-59
2022/09/20 02:54:24;;;;;;;10.50;4.20;;;13.60;99.90;;;;;;4954522;28;20043;-56
2022/09/20 02:56:51;;;;;;;8.13;4.32;;;13.60;99.90;;;;;;4954603;29;20086;-58
2022/09/20 02:59:18;;;;;;;8.23;5.00;;;13.60;99.90;;;;;;4953435;29;20113;-58
2022/09/20 03:01:45;;;;;;;8.10;4.57;;;13.60;99.90;;;;;;4953951;28;20118;-58
2022/09/20 03:04:12;;;;;;;6.50;4.97;;;13.60;99.90;;;;;;4953411;28;20040;-61
2022/09/20 03:06:38;;;;;;;10.13;5.35;;;13.60;99.90;;;;;;4954149;29;20043;-59
2022/09/20 03:09:05;;;;;;;5.75;4.53;;;13.60;99.90;;;;;;4954285;28;20031;-58
2022/09/20 03:11:32;;;;;;;10.00;4.85;;;13.60;99.90;;;;;;4954239;28;20061;-59
2022/09/20 03:13:58;;;;;;;7.45;4.82;;;13.60;99.90;;;;;;4954498;28;20132;-60
2022/09/20 03:16:25;;;;;;;8.07;4.80;;;13.60;99.90;;;;;;4953440;28;20117;-59
2022/09/20 03:18:52;;;;;;;8.18;4.60;;;13.50;99.90;;;;;;4954170;28;20035;-59
2022/09/20 03:21:21;;;;;;;8.45;4.55;;;13.50;99.90;;;;;;4955150;28;20043;-54
2022/09/20 03:23:48;;;;;;;8.13;4.72;;;13.50;99.90;;;;;;4954603;28;20067;-59
2022/09/20 03:26:14;;;;;;;9.80;4.78;;;13.50;99.90;;;;;;4953493;29;20114;-57
2022/09/20 03:28:42;;;;;;;8.13;4.25;;;13.50;99.90;;;;;;4954682;28;20074;-59
2022/09/20 03:31:09;;;;;;;6.55;4.32;;;13.50;99.90;;;;;;4954050;29;20055;-57
2022/09/20 03:33:35;;;;;;;8.38;4.65;;;13.50;99.90;;;;;;4955063;28;20039;-58
2022/09/20 03:36:02;;;;;;;5.90;4.30;;;13.40;99.90;;;;;;4954794;29;20102;-58
2022/09/20 03:38:29;;;;;;;6.90;4.72;;;13.40;99.90;;;;;;4954295;29;20451;-57
2022/09/20 03:40:56;;;;;;;7.95;4.82;;;13.40;99.90;;;;;;4953687;28;20078;-60
2022/09/20 03:43:23;;;;;;;7.35;4.63;;;13.40;99.90;;;;;;4954071;28;20054;-60
2022/09/20 03:45:50;;;;;;;11.75;5.43;;;13.40;99.90;;;;;;4952728;28;20499;-60
2022/09/20 03:48:16;;;;;;;7.72;4.95;;;13.40;99.90;;;;;;4953736;28;20490;-59
2022/09/20 03:50:43;;;;;;;6.45;5.05;;;13.40;99.90;;;;;;4954297;29;20040;-60
2022/09/20 03:53:10;;;;;;;9.05;4.78;;;13.30;99.90;;;;;;4953882;28;20043;-54
2022/09/20 03:55:36;;;;;;;7.95;4.55;;;13.30;99.90;;;;;;4954237;28;20439;-57
2022/09/20 03:58:03;;;;;;;10.30;5.15;;;13.30;99.90;;;;;;4953692;28;20118;-57
2022/09/20 04:00:34;;;;;;;7.85;4.70;;;13.30;99.90;;;;;;4950649;29;20057;-59
2022/09/20 04:03:01;;;;;;;7.80;5.00;;;13.30;99.90;;;;;;4953368;28;20097;-57
2022/09/20 04:05:27;;;;;;;8.60;4.97;;;13.30;99.90;;;;;;4952719;29;20078;-57
2022/09/20 04:07:54;;;;;;;7.47;4.97;;;13.20;99.90;;;;;;4956456;28;20044;-56
2022/09/20 04:10:21;;;;;;;7.10;5.13;;;13.20;99.90;;;;;;4956573;28;20039;-59
2022/09/20 04:12:48;;;;;;;10.60;5.20;;;13.20;99.90;;;;;;4957749;28;20078;-60
2022/09/20 04:15:14;;;;;;;12.18;5.15;;;13.10;99.90;;;;;;4957647;28;20047;-58
2022/09/20 04:17:41;;;;;;;10.43;5.78;;;13.10;99.90;;;;;;4957275;28;20075;-58
2022/09/20 04:20:08;;;;;;;7.28;5.03;;;13.10;99.90;;;;;;4957859;28;20078;-56
2022/09/20 04:22:35;;;;;;;9.75;5.15;;;13.00;99.90;;;;;;4957023;28;20046;-58
2022/09/20 04:25:02;;;;;;;8.32;5.63;;;13.00;99.90;;;;;;4956986;28;20082;-57
2022/09/20 04:27:29;;;;;;;7.78;4.95;;;12.90;99.90;;;;;;4957310;28;20055;-58
2022/09/20 04:29:56;;;;;;;7.13;5.30;;;12.80;99.90;;;;;;4953901;28;20126;-60
2022/09/20 04:32:22;;;;;;;6.88;4.90;;;12.80;99.90;;;;;;4956549;28;20394;-59
2022/09/20 04:37:34;;;;;;;7.00;4.68;;;12.70;99.90;;;;;;4957990;28;20039;-60
2022/09/20 04:40:01;;;;;;;9.48;6.05;;;12.70;99.90;;;;;;4957279;28;20043;-60
2022/09/20 04:42:28;;;;;;;9.07;5.63;;;12.60;99.90;;;;;;4957016;28;20035;-59
2022/09/20 04:44:55;;;;;;;6.32;4.78;;;12.50;99.90;;;;;;4955876;28;20039;-58
2022/09/20 04:47:22;;;;;;;7.93;5.35;;;12.50;99.90;;;;;;4957073;28;20115;-57
2022/09/20 04:49:49;;;;;;;7.22;4.90;;;12.40;99.90;;;;;;4955977;28;20031;-56
2022/09/20 04:52:16;;;;;;;9.80;5.28;;;12.40;99.90;;;;;;4957284;28;20495;-58
2022/09/20 04:54:43;;;;;;;8.52;5.40;;;12.40;99.90;;;;;;4956558;28;20047;-56
2022/09/20 04:57:10;;;;;;;6.85;5.28;;;12.40;99.90;;;;;;4955079;28;20141;-58
2022/09/20 04:59:37;;;;;;;9.80;5.60;;;12.30;99.90;;;;;;4957065;28;20532;-56
2022/09/20 05:02:04;;;;;;;9.13;5.28;;;12.30;99.90;;;;;;4952408;28;20043;-59
2022/09/20 05:04:31;;;;;;;7.13;5.57;;;12.30;99.90;;;;;;4951431;28;20099;-57
2022/09/20 05:06:57;;;;;;;9.25;5.70;;;12.20;99.90;;;;;;4943338;28;20463;-59
2022/09/20 05:09:24;;;;;;;9.65;5.97;;;12.20;99.90;;;;;;4938917;29;20044;-55
2022/09/20 05:11:51;;;;;;;7.15;5.72;;;12.10;99.90;;;;;;4957238;29;20501;-58
2022/09/20 05:14:18;;;;;;;8.05;6.15;;;12.10;99.90;;;;;;4957078;28;20047;-55
2022/09/20 05:16:45;;;;;;;8.45;5.65;;;12.10;99.90;;;;;;4957318;29;20485;-57
2022/09/20 05:19:12;;;;;;;7.82;5.75;;;12.10;99.90;;;;;;4949323;28;20039;-59
2022/09/20 05:21:40;;;;;;;7.80;5.45;;;12.00;99.90;;;;;;4955764;28;20510;-55
2022/09/20 05:24:06;;;;;;;7.97;5.85;;;12.00;99.90;;;;;;4955547;28;20427;-59
2022/09/20 05:26:37;;;;;;;9.98;5.90;;;11.90;99.90;;;;;;4955108;28;20067;-57
2022/09/20 05:29:04;;;;;;;8.07;5.35;;;11.90;99.90;;;;;;4955956;28;20110;-59
2022/09/20 05:31:32;;;;;;;9.48;5.93;;;11.90;99.90;;;;;;4956443;28;20078;-57
2022/09/20 05:34:01;;;;;;;9.18;5.90;;;11.90;99.90;;;;;;4956807;28;20074;-55
2022/09/20 05:36:28;;;;;;;9.60;5.47;;;11.80;99.90;;;;;;4956444;29;20047;-58
2022/09/20 05:39:00;;;;;;;9.23;5.28;;;11.80;99.90;;;;;;4956811;28;20099;-57
2022/09/20 05:41:30;;;;;;;8.52;5.32;;;11.70;99.90;;;;;;4954599;28;20513;-57
2022/09/20 05:43:57;;;;;;;10.85;6.05;;;11.70;99.90;;;;;;4954575;28;20131;-59
2022/09/20 05:46:24;;;;;;;8.55;5.22;;;11.70;99.90;;;;;;4955790;28;20478;-58
2022/09/20 05:48:50;;;;;;;8.02;5.70;;;11.70;99.90;;;;;;4954104;28;20089;-55
2022/09/20 05:51:17;;;;;;;10.25;5.53;;;11.70;99.90;;;;;;4955573;28;20031;-58
2022/09/20 05:53:44;;;;;;;8.63;5.25;;;11.70;99.90;;;;;;4955593;28;20065;-56
2022/09/20 05:56:11;;;;;;;7.25;5.32;;;11.60;99.90;;;;;;4955328;28;20047;-56
2022/09/20 05:58:37;;;;;;;9.23;5.40;;;11.60;99.90;;;;;;4953964;29;20133;-57
2022/09/20 06:01:04;;;;;;;8.90;5.82;;;11.60;99.90;;;;;;4953201;29;20047;-54
2022/09/20 06:03:31;;;;;;;6.63;5.22;;;11.60;99.90;;;;;;4954550;28;20047;-60
2022/09/20 06:05:57;;;;;;;8.15;5.53;;;11.60;99.90;;;;;;4953906;28;20126;-60
2022/09/20 06:08:24;;;;;;;8.65;5.53;;;11.60;99.90;;;;;;4953056;29;20036;-58
2022/09/20 06:10:51;;;;;;;7.15;5.60;;;11.60;99.90;;;;;;4953349;29;20511;-58
2022/09/20 06:13:19;;;;;;;9.32;5.57;;;11.50;99.90;;;;;;4953917;28;20053;-58
2022/09/20 06:15:46;;;;;;;9.48;5.30;;;11.50;99.90;;;;;;4955213;28;20043;-60
2022/09/20 06:18:12;;;;;;;9.43;6.68;;;11.50;99.90;;;;;;4955894;28;20098;-61
2022/09/20 06:20:39;;;;;;;7.63;6.30;;;11.50;99.90;;;;;;4955855;29;20078;-59
2022/09/20 06:23:06;;;;;;;8.18;5.72;;;11.50;99.90;;;;;;4955682;29;20506;-55
2022/09/20 06:25:32;;;;;;;10.13;5.88;;;11.50;99.90;;;;;;4956005;29;20036;-56
2022/09/20 06:27:59;;;;;;;8.10;6.13;;;11.50;99.90;;;;;;4939177;29;20076;-57
2022/09/20 06:30:26;;;;;;;11.52;6.30;;;11.60;99.90;;;;;;4939212;29;20073;-57
2022/09/20 06:32:53;;;;;;;9.75;6.15;;;11.60;99.90;;;;;;4952951;28;20070;-57
2022/09/20 06:35:20;;;;;;;11.25;5.90;;;11.60;99.90;;;;;;4953224;29;20087;-58
2022/09/20 06:43:18;;;;;;;9.25;6.43;;;11.70;99.90;;;;;;4953259;28;20067;-58
2022/09/20 06:45:44;;;;;;;15.60;6.20;;;11.70;99.90;;;;;;4954425;28;20130;-61
2022/09/20 06:48:12;;;;;;;14.35;6.40;;;11.80;99.90;;;;;;4953836;28;20047;-59
2022/09/20 06:50:38;;;;;;;8.20;5.60;;;11.80;99.90;;;;;;4943192;29;20455;-55
2022/09/20 06:53:06;;;;;;;8.85;6.00;;;11.90;99.90;;;;;;4946293;28;20114;-58
2022/09/20 06:55:33;;;;;;;8.00;6.32;;;11.90;99.90;;;;;;4952570;28;20067;-55
2022/09/20 06:58:00;;;;;;;10.70;6.53;;;12.00;99.90;;;;;;4953896;28;20102;-57
2022/09/20 07:00:26;;;;;;;7.88;6.80;;;12.00;99.90;;;;;;4951734;28;20126;-57
2022/09/20 07:02:55;;;;;;;9.90;7.00;;;12.10;99.90;;;;;;4951766;29;21676;-55
2022/09/20 07:05:25;;;;;;;9.20;6.35;;;12.10;99.90;;;;;;4951428;28;20102;-56
2022/09/20 07:07:52;;;;;;;15.15;7.15;;;12.20;99.90;;;;;;4953445;28;20495;-59
2022/09/20 07:10:18;;;;;;;10.70;7.50;;;12.20;99.90;;;;;;4952738;28;20102;-59
2022/09/20 07:12:45;;;;;;;9.63;6.88;;;12.20;99.90;;;;;;4951206;28;20035;-61
2022/09/20 07:15:13;;;;;;;22.88;11.88;;;12.20;99.90;;;;;;4954019;28;20058;-59
2022/09/20 07:17:40;;;;;;;9.73;6.72;;;12.30;99.90;;;;;;4951754;29;20090;-57
2022/09/20 07:20:07;;;;;;;9.05;6.88;;;12.30;99.90;;;;;;4952783;28;20099;-58
2022/09/20 07:22:34;;;;;;;9.23;7.43;;;12.30;99.90;;;;;;4935062;29;20083;-54
2022/09/20 07:25:01;;;;;;;8.60;6.80;;;12.40;99.90;;;;;;4948787;29;20130;-56
2022/09/20 07:27:28;;;;;;;9.82;6.90;;;12.40;99.90;;;;;;4947543;28;20051;-59
2022/09/20 07:29:55;;;;;;;10.95;7.22;;;12.50;99.90;;;;;;4951051;28;20043;-57
2022/09/20 07:32:21;;;;;;;9.15;6.93;;;12.50;99.90;;;;;;4959236;28;20106;-55
2022/09/20 07:34:48;;;;;;;12.35;6.60;;;12.60;99.90;;;;;;4946040;29;20105;-53
2022/09/20 07:37:15;;;;;;;15.20;6.78;;;12.60;99.90;;;;;;4951372;28;20050;-57
2022/09/20 07:39:42;;;;;;;9.50;7.10;;;12.70;99.90;;;;;;4949347;28;20081;-57
2022/09/20 07:42:08;;;;;;;10.90;6.80;;;12.70;99.90;;;;;;4952490;28;20053;-58
2022/09/20 07:44:35;;;;;;;9.48;7.13;;;12.80;99.90;;;;;;4957482;28;20043;-53
2022/09/20 07:47:02;;;;;;;11.40;7.35;;;12.80;99.90;;;;;;4951390;28;20125;-60
2022/09/20 07:49:29;;;;;;;14.32;7.35;;;12.90;99.90;;;;;;4956801;28;20447;-55
2022/09/20 07:51:55;;;;;;;13.90;7.18;;;13.00;99.90;;;;;;4957730;28;20462;-58
2022/09/20 07:54:22;;;;;;;13.68;7.88;;;13.10;99.90;;;;;;4957189;28;20073;-58
2022/09/20 07:56:49;;;;;;;10.98;6.88;;;13.20;99.90;;;;;;4955273;28;20073;-60
2022/09/20 07:59:16;;;;;;;12.40;7.00;;;13.20;99.90;;;;;;4955192;28;20395;-54
2022/09/20 08:01:42;;;;;;;9.05;6.72;;;13.30;99.90;;;;;;4956817;29;20419;-59
2022/09/20 08:04:09;;;;;;;12.23;6.97;;;13.40;99.90;;;;;;4956819;28;20054;-55
2022/09/20 08:06:36;;;;;;;13.25;7.10;;;13.40;99.90;;;;;;4954818;28;20470;-59
2022/09/20 08:09:03;;;;;;;9.50;7.07;;;13.40;99.90;;;;;;4957343;28;20043;-57
2022/09/20 08:11:38;;;;;;;18.63;6.93;;;13.50;99.90;;;;;;4956695;29;20205;-53
2022/09/20 08:14:05;;;;;;;23.17;7.05;;;13.60;99.90;;;;;;4955751;28;20507;-56
2022/09/20 08:16:34;;;;;;;10.60;7.50;;;13.70;99.90;;;;;;4955672;28;20098;-58
2022/09/20 08:19:00;;;;;;;13.35;6.82;;;13.80;99.90;;;;;;4955407;29;20074;-54
2022/09/20 08:21:27;;;;;;;11.07;7.30;;;13.80;99.90;;;;;;4953365;28;20090;-57
2022/09/20 08:23:54;;;;;;;13.23;7.10;;;13.90;99.90;;;;;;4958718;28;20122;-55
2022/09/20 08:26:22;;;;;;;11.48;6.85;;;14.00;99.90;;;;;;4951212;28;20098;-59
2022/09/20 08:28:50;;;;;;;10.77;6.90;;;14.10;99.90;;;;;;4954717;28;20039;-57
2022/09/20 08:31:20;;;;;;;11.27;6.15;;;14.20;99.90;;;;;;4954826;28;20454;-56
2022/09/20 08:33:47;;;;;;;9.30;6.43;;;14.30;99.90;;;;;;4955014;28;20122;-56
2022/09/20 08:36:14;;;;;;;11.15;6.03;;;14.40;99.90;;;;;;4956127;28;20074;-54
2022/09/20 08:38:40;;;;;;;10.38;6.25;;;14.50;99.80;;;;;;4955659;29;20134;-57
2022/09/20 08:41:27;;;;;;;10.13;6.65;;;14.50;99.50;;;;;;4953221;29;20051;-57
2022/09/20 08:43:54;;;;;;;9.60;6.00;;;14.60;99.10;;;;;;4955428;28;20051;-57
2022/09/20 08:46:21;;;;;;;8.40;5.63;;;14.70;98.10;;;;;;4949265;28;20050;-56
2022/09/20 08:48:49;;;;;;;7.32;5.53;;;14.70;98.20;;;;;;4952333;29;20047;-63
2022/09/20 08:51:15;;;;;;;9.27;5.72;;;14.80;97.80;;;;;;4955442;29;20514;-62
2022/09/20 08:53:48;;;;;;;8.65;5.20;;;14.90;97.50;;;;;;4955091;28;20127;-62
2022/09/20 08:56:15;;;;;;;9.43;4.97;;;15.00;97.00;;;;;;4954178;28;20039;-59
2022/09/20 08:58:42;;;;;;;8.48;4.22;;;15.10;97.40;;;;;;4956531;29;20051;-57
2022/09/20 09:01:09;;;;;;;6.72;4.03;;;15.10;96.80;;;;;;4949237;28;20668;-59
2022/09/20 09:03:36;;;;;;;5.95;3.80;;;15.20;96.60;;;;;;4952819;28;20529;-59
2022/09/20 09:06:03;;;;;;;4.07;3.08;;;15.30;95.30;;;;;;4953380;29;20043;-59
2022/09/20 09:08:35;;;;;;;4.88;3.60;;;15.40;95.30;;;;;;4955747;29;20053;-59
2022/09/20 09:11:07;;;;;;;4.32;3.10;;;15.50;95.40;;;;;;4955009;28;20035;-59
2022/09/20 09:13:33;;;;;;;4.20;2.65;;;15.60;95.30;;;;;;4952872;28;20110;-61
2022/09/20 09:16:01;;;;;;;6.72;3.20;;;15.70;94.60;;;;;;4953593;28;20435;-59
2022/09/20 09:18:28;;;;;;;7.57;3.00;;;15.70;95.00;;;;;;4956122;28;20051;-57
2022/09/20 09:20:58;;;;;;;3.65;2.45;;;15.70;94.40;;;;;;4954480;28;20051;-61
2022/09/20 09:23:24;;;;;;;3.75;2.42;;;15.80;94.70;;;;;;4955088;28;20118;-58
2022/09/20 09:25:51;;;;;;;2.97;2.00;;;15.70;93.90;;;;;;4954599;28;20039;-56
2022/09/20 09:28:18;;;;;;;2.95;1.70;;;15.70;93.50;;;;;;4955248;29;20174;-59
2022/09/20 09:30:48;;;;;;;2.53;1.30;;;15.70;92.50;;;;;;4950578;29;20043;-59
2022/09/20 09:33:15;;;;;;;2.83;1.50;;;15.80;92.80;;;;;;4955734;29;20586;-60
2022/09/20 09:35:41;;;;;;;3.33;1.70;;;15.80;92.70;;;;;;4955060;28;20118;-53
2022/09/20 09:38:08;;;;;;;2.38;1.10;;;15.80;92.60;;;;;;4953694;28;20051;-57
2022/09/20 09:40:35;;;;;;;2.90;0.93;;;15.80;92.00;;;;;;4954907;28;20035;-58
2022/09/20 09:43:02;;;;;;;2.63;1.13;;;15.80;91.70;;;;;;4953105;28;20422;-60
2022/09/20 09:45:29;;;;;;;4.78;1.27;;;15.90;91.50;;;;;;4950420;28;20243;-58
2022/09/20 09:47:56;;;;;;;2.13;1.10;;;15.90;92.00;;;;;;4952493;29;20035;-60
2022/09/20 09:50:22;;;;;;;3.10;0.80;;;16.00;91.60;;;;;;4954371;28;20078;-62
2022/09/20 09:52:49;;;;;;;3.13;1.05;;;16.00;91.50;;;;;;4951141;28;20092;-57
2022/09/20 09:55:16;;;;;;;2.25;1.20;;;16.10;91.70;;;;;;4954789;29;20499;-58
2022/09/20 09:57:42;;;;;;;5.68;1.30;;;16.20;91.40;;;;;;4954255;28;20131;-58
2022/09/20 10:00:11;;;;;;;4.55;1.20;;;16.30;91.20;;;;;;4954689;28;20097;-58
2022/09/20 10:02:47;;;;;;;2.70;1.27;;;16.30;91.70;;;;;;4954036;28;20057;-59
2022/09/20 10:05:14;;;;;;;5.22;1.73;;;16.40;90.90;;;;;;4947171;28;20051;-59
2022/09/20 10:07:40;;;;;;;2.08;1.38;;;16.40;91.70;;;;;;4953788;28;20150;-60
2022/09/20 10:10:07;;;;;;;2.58;1.27;;;16.50;91.30;;;;;;4946142;29;20040;-59
2022/09/20 10:12:34;;;;;;;2.38;1.30;;;16.60;91.30;;;;;;4952797;28;20078;-60
2022/09/20 10:15:00;;;;;;;3.83;1.33;;;16.70;91.10;;;;;;4954108;29;20154;-58
2022/09/20 10:17:27;;;;;;;4.70;1.50;;;16.70;91.10;;;;;;4953738;28;20047;-57
2022/09/20 10:19:54;;;;;;;2.45;1.30;;;16.80;91.50;;;;;;4957882;28;20038;-58
2022/09/20 10:22:22;;;;;;;2.00;1.30;;;16.80;90.90;;;;;;4948631;28;20097;-57
2022/09/20 10:24:48;;;;;;;1.88;1.05;;;16.90;90.00;;;;;;4954719;28;20471;-63
2022/09/20 10:27:18;;;;;;;2.03;0.93;;;16.90;90.00;;;;;;4950499;29;20043;-60
2022/09/20 10:29:45;;;;;;;1.83;1.25;;;16.90;89.70;;;;;;4954799;29;20573;-56
2022/09/20 10:32:13;;;;;;;3.70;1.10;;;17.00;89.20;;;;;;4953037;28;20087;-60
2022/09/20 10:34:41;;;;;;;3.53;1.05;;;17.00;89.00;;;;;;4953080;28;20106;-61
2022/09/20 10:37:07;;;;;;;3.17;1.13;;;17.10;89.70;;;;;;4952947;29;20069;-57
2022/09/20 10:39:34;;;;;;;2.65;0.90;;;17.10;89.00;;;;;;4952280;28;20043;-60
2022/09/20 10:44:46;;;;;;;;;;;17.20;87.80;;;;;;4955045;28;20086;-58
2022/09/20 10:47:13;;;;;;;2.45;0.80;;;17.30;88.80;;;;;;4953076;28;19996;-59
2022/09/20 10:49:40;;;;;;;3.53;2.22;;;17.40;88.90;;;;;;4952923;29;20107;-57
2022/09/20 10:52:07;;;;;;;2.90;0.80;;;17.50;88.80;;;;;;4952903;28;20127;-57
2022/09/20 10:54:33;;;;;;;3.03;0.80;;;17.50;87.40;;;;;;4953718;28;20078;-57
2022/09/20 10:57:01;;;;;;;1.42;0.82;;;17.60;87.80;;;;;;4952909;28;20558;-58
2022/09/20 10:59:28;;;;;;;2.17;0.98;;;17.60;87.20;;;;;;4953772;29;20104;-57
2022/09/20 11:01:56;;;;;;;1.30;0.70;;;17.60;86.80;;;;;;4952574;28;20487;-59
2022/09/20 11:04:23;;;;;;;1.75;0.80;;;17.70;86.90;;;;;;4963058;28;20090;-58
2022/09/20 11:06:50;;;;;;;3.78;1.10;;;17.70;85.90;;;;;;4951885;28;20086;-59
2022/09/20 11:09:16;;;;;;;1.92;0.88;;;17.70;86.30;;;;;;4952029;29;20043;-56
2022/09/20 11:11:43;;;;;;;3.35;0.95;;;17.80;86.20;;;;;;4952378;28;20114;-60
2022/09/20 11:14:10;;;;;;;2.00;1.00;;;17.80;87.10;;;;;;4952940;28;20118;-55
2022/09/20 11:16:36;;;;;;;2.22;1.02;;;17.80;86.50;;;;;;4954213;28;20495;-57
2022/09/20 11:19:03;;;;;;;1.75;0.93;;;17.80;86.90;;;;;;4956710;28;20051;-56
2022/09/20 11:21:30;;;;;;;3.53;1.20;;;18.00;85.80;;;;;;4955770;28;20039;-56
2022/09/20 11:23:57;;;;;;;1.85;0.88;;;17.90;85.00;;;;;;4955651;28;20129;-59
2022/09/20 11:26:24;;;;;;;4.05;1.10;;;17.90;85.10;;;;;;4954887;28;20046;-55
2022/09/20 11:28:51;;;;;;;4.90;1.40;;;18.00;86.20;;;;;;4955911;29;20400;-58
2022/09/20 11:31:20;;;;;;;2.85;0.80;;;18.10;86.50;;;;;;4955850;28;20039;-60
2022/09/20 11:33:47;;;;;;;1.58;0.70;;;18.20;86.40;;;;;;4956197;28;20122;-57
2022/09/20 11:36:14;;;;;;;2.17;0.98;;;18.30;86.60;;;;;;4955871;28;20054;-60
2022/09/20 11:38:41;;;;;;;1.98;0.90;;;18.40;84.90;;;;;;4956142;28;20046;-55
2022/09/20 11:41:08;;;;;;;2.30;1.00;;;18.30;84.00;;;;;;4956859;28;20078;-56
2022/09/20 11:43:37;;;;;;;2.15;0.93;;;18.20;83.90;;;;;;4953160;29;20122;-59
2022/09/20 11:46:04;;;;;;;1.60;0.70;;;18.20;85.30;;;;;;4956420;28;20506;-56
2022/09/20 11:48:31;;;;;;;3.40;0.90;;;18.30;84.90;;;;;;4956899;28;20039;-53
2022/09/20 11:50:58;;;;;;;3.95;0.90;;;18.40;84.30;;;;;;4955036;28;20119;-57
2022/09/20 11:53:24;;;;;;;3.95;1.00;;;18.40;83.90;;;;;;4955776;29;20035;-57
2022/09/20 11:55:51;;;;;;;2.03;0.85;;;18.40;84.90;;;;;;4956350;28;20490;-59
2022/09/20 11:58:21;;;;;;;2.42;0.80;;;18.50;85.30;;;;;;4956724;28;20047;-58
2022/09/20 12:00:48;;;;;;;2.42;1.13;;;18.50;83.70;;;;;;4958809;28;20066;-60
2022/09/20 12:03:14;;;;;;;2.08;0.98;;;18.60;83.80;;;;;;4954996;29;20047;-55
2022/09/20 12:05:42;;;;;;;2.42;1.00;;;18.50;83.30;;;;;;4947109;28;20460;-52
2022/09/20 12:08:09;;;;;;;3.47;1.10;;;18.40;83.50;;;;;;4956668;29;20036;-58
2022/09/20 12:10:36;;;;;;;2.92;0.90;;;18.40;84.10;;;;;;4953949;28;20451;-56
2022/09/20 12:13:02;;;;;;;5.82;1.00;;;18.30;84.20;;;;;;4956719;28;20126;-56
2022/09/20 12:15:29;;;;;;;2.47;1.10;;;18.40;84.50;;;;;;4956931;28;20035;-54
2022/09/20 12:17:56;;;;;;;1.90;1.00;;;18.50;85.20;;;;;;4951304;28;20494;-57
2022/09/20 12:20:23;;;;;;;5.18;0.73;;;18.60;83.50;;;;;;4949068;29;20047;-57
2022/09/20 12:22:49;;;;;;;2.53;1.00;;;18.60;83.70;;;;;;4953299;28;20119;-56
2022/09/20 12:25:16;;;;;;;2.38;0.90;;;18.60;83.30;;;;;;4955346;29;20551;-54
2022/09/20 12:27:43;;;;;;;2.88;1.05;;;18.60;84.30;;;;;;4954218;28;20430;-58
2022/09/20 12:30:10;;;;;;;2.60;1.00;;;18.70;83.40;;;;;;4955349;28;20035;-59
2022/09/20 12:32:36;;;;;;;2.17;1.20;;;18.70;84.10;;;;;;4954825;28;20043;-55
2022/09/20 12:35:03;;;;;;;2.00;1.00;;;18.80;83.70;;;;;;4955158;28;20046;-61
2022/09/20 12:37:30;;;;;;;7.93;1.02;;;18.90;84.00;;;;;;4954965;28;20126;-59
2022/09/20 12:39:57;;;;;;;4.90;1.10;;;18.90;82.80;;;;;;4955050;29;20118;-57
2022/09/20 12:42:25;;;;;;;12.00;1.08;;;19.00;83.90;;;;;;4955714;29;20101;-56
2022/09/20 12:44:52;;;;;;;1.90;0.95;;;19.10;83.10;;;;;;4952722;28;20466;-56
2022/09/20 12:47:18;;;;;;;2.15;1.00;;;19.20;83.50;;;;;;4953619;29;20094;-58
2022/09/20 12:52:52;;;;;;;2.28;1.08;;;19.30;82.40;;;;;;4955311;28;20043;-56
2022/09/20 12:55:19;;;;;;;2.85;0.98;;;19.30;82.40;;;;;;4952716;28;20042;-59
2022/09/20 12:57:46;;;;;;;3.25;1.00;;;19.20;82.10;;;;;;4953517;28;20047;-60
2022/09/20 13:00:12;;;;;;;6.10;1.10;;;19.20;82.10;;;;;;4956344;28;20043;-53